createdAt,value
2018-04-10T00:09:38.474Z,21.3
2018-04-10T00:19:37.362Z,21.3
2018-04-10T00:29:36.789Z,21.4
2018-04-10T00:39:35.805Z,21.3
2018-04-10T00:49:35.474Z,21.3
2018-04-10T00:59:34.803Z,21.3
2018-04-10T01:09:33.221Z,21.3
2018-04-10T01:19:32.614Z,21.3
2018-04-10T01:29:31.595Z,21.2
2018-04-10T01:39:30.783Z,21.2
2018-04-10T01:49:30.331Z,21.2
2018-04-10T01:59:29.387Z,21.2
2018-04-10T02:09:28.714Z,21.2
2018-04-10T02:19:27.885Z,21.2
2018-04-10T02:29:27.381Z,21.2
2018-04-10T02:39:26.581Z,21.2
2018-04-10T02:49:25.801Z,21.1
2018-04-10T02:59:24.667Z,21.1
2018-04-10T03:09:23.858Z,21.1
2018-04-10T03:19:23.408Z,21.1
2018-04-10T03:29:22.346Z,21.1
2018-04-10T03:39:21.517Z,21.2
2018-04-10T03:49:21.156Z,21.2
2018-04-10T03:59:19.653Z,21.2
2018-04-10T04:09:19.173Z,20.9
2018-04-10T04:19:18.365Z,20.7
2018-04-10T04:29:17.894Z,20.6
2018-04-10T04:39:16.868Z,20.6
2018-04-10T04:49:16.093Z,20.6
2018-04-10T04:59:15.740Z,20.6
2018-04-10T05:09:14.153Z,20.7
2018-04-10T05:19:14.173Z,20.8
2018-04-10T05:29:12.611Z,20.8
2018-04-10T05:39:12.103Z,20.8
2018-04-10T05:49:11.682Z,20.9
2018-04-10T05:59:10.448Z,20.9
2018-04-10T06:09:09.758Z,21.1
2018-04-10T06:19:08.964Z,21.3
2018-04-10T06:29:08.186Z,21.4
2018-04-10T06:39:07.397Z,21.6
2018-04-10T06:49:06.472Z,21.8
2018-04-10T06:59:05.809Z,21.9
2018-04-10T07:09:04.727Z,22.1
2018-04-10T07:19:03.907Z,22.3
2018-04-10T07:29:03.330Z,22.5
2018-04-10T07:39:02.288Z,22.8
2018-04-10T07:49:02.132Z,23
2018-04-10T07:59:01.372Z,23.2
2018-04-10T08:09:00.443Z,23.4
2018-04-10T08:18:59.364Z,23.6
2018-04-10T08:28:58.745Z,23.7
2018-04-10T08:38:57.889Z,24
2018-04-10T08:48:57.035Z,24.2
2018-04-10T08:58:56.216Z,24.3
2018-04-10T09:08:55.783Z,24.4
2018-04-10T09:18:54.913Z,24.6
2018-04-10T09:28:53.638Z,24.6
2018-04-10T09:38:53.106Z,24.6
2018-04-10T09:48:52.885Z,24.6
2018-04-10T09:58:51.213Z,24.5
2018-04-10T10:08:51.052Z,24.4
2018-04-10T10:18:49.685Z,24.4
2018-04-10T10:28:49.214Z,24.3
2018-04-10T10:38:48.302Z,24.4
2018-04-10T10:48:47.299Z,24.4
2018-04-10T10:58:46.772Z,24.6
2018-04-10T11:08:45.976Z,24.4
2018-04-10T11:18:45.523Z,24
2018-04-10T11:28:44.432Z,24.3
2018-04-10T11:38:43.899Z,24.4
2018-04-10T11:48:42.965Z,24.4
2018-04-10T11:58:42.087Z,24.3
2018-04-10T12:08:41.210Z,23.8
2018-04-10T12:18:40.409Z,23.5
2018-04-10T12:28:39.913Z,23.9
2018-04-10T12:38:38.676Z,23.7
2018-04-10T12:48:38.408Z,23.7
2018-04-10T12:58:37.300Z,24.2
2018-04-10T13:08:36.572Z,24.1
2018-04-10T13:18:35.975Z,23.8
2018-04-10T13:28:34.890Z,23.3
2018-04-10T13:38:34.234Z,23.2
2018-04-10T13:48:33.686Z,23.3
2018-04-10T13:58:32.622Z,23.7
2018-04-10T14:08:32.093Z,23.3
2018-04-10T14:18:31.009Z,23.2
2018-04-10T14:28:30.575Z,23.3
2018-04-10T14:38:29.488Z,23.3
2018-04-10T14:48:28.887Z,23.3
2018-04-10T14:58:27.802Z,23.2
2018-04-10T15:08:27.061Z,23
2018-04-10T15:18:26.288Z,23
2018-04-10T15:28:25.776Z,22.9
2018-04-10T15:38:24.733Z,22.9
2018-04-10T15:48:24.141Z,22.9
2018-04-10T15:58:23.129Z,22.9
2018-04-10T16:08:22.346Z,22.8
2018-04-10T16:18:21.582Z,22.8
2018-04-10T16:28:20.923Z,22.7
2018-04-10T16:38:20.077Z,22.4
2018-04-10T16:48:19.134Z,22.3
2018-04-10T16:58:18.620Z,22.1
2018-04-10T17:08:17.547Z,21.9
2018-04-10T17:18:17.140Z,21.9
2018-04-10T17:28:16.021Z,21.8
2018-04-10T17:38:15.315Z,21.6
2018-04-10T17:48:14.724Z,21.4
2018-04-10T17:58:13.883Z,20.9
2018-04-10T18:08:12.605Z,20.9
2018-04-10T18:18:12.069Z,20.9
2018-04-10T18:28:11.075Z,20.9
2018-04-10T18:38:10.867Z,19.9
2018-04-10T18:48:10.523Z,20.9
2018-04-10T18:58:09.195Z,20.5
2018-04-10T19:08:08.619Z,20.6
2018-04-10T19:29:06.161Z,20.6
2018-04-10T19:48:27.303Z,21.4
2018-04-10T19:58:26.713Z,22
2018-04-10T20:08:25.952Z,22.3
2018-04-10T20:18:25.200Z,22.4
2018-04-10T20:28:24.702Z,22.4
2018-04-10T20:38:23.671Z,22.5
2018-04-10T20:48:23.156Z,22.5
2018-04-10T20:58:22.105Z,22.4
2018-04-10T21:08:21.025Z,22.4
2018-04-10T21:18:20.501Z,22.4
2018-04-10T21:28:19.797Z,22.4
2018-04-10T21:38:19.077Z,22.4
2018-04-10T21:48:18.190Z,22.4
2018-04-10T21:58:17.507Z,22.4
2018-04-10T22:08:16.533Z,22.4
2018-04-10T22:18:15.791Z,22.4
2018-04-10T22:28:14.863Z,22.4
2018-04-10T22:38:14.216Z,22.3
2018-04-10T22:48:13.797Z,22.3
2018-04-10T22:58:12.559Z,22.3
2018-04-10T23:08:12.143Z,22.3
2018-04-10T23:18:10.724Z,22.3
2018-04-10T23:28:10.063Z,22.3
2018-04-10T23:38:09.709Z,22.2
2018-04-10T23:48:08.942Z,22.2
2018-04-10T23:58:07.860Z,22.2
